createdAt,value
2022-08-25T00:01:32.170Z,5.45
2022-08-25T00:05:48.766Z,5.62
2022-08-25T00:58:31.152Z,5.62
2022-08-25T01:02:47.367Z,4.62
2022-08-25T01:07:04.041Z,4.90
2022-08-25T01:11:20.540Z,5.65
2022-08-25T01:15:36.727Z,5.40
2022-08-25T01:19:55.574Z,5.90
2022-08-25T01:24:16.251Z,5.95
2022-08-25T01:28:32.298Z,5.72
2022-08-25T01:32:48.958Z,5.12
2022-08-25T01:37:05.679Z,5.40
2022-08-25T01:41:55.994Z,5.55
2022-08-25T01:46:12.668Z,4.95
2022-08-25T01:50:29.151Z,5.55
2022-08-25T01:54:45.357Z,4.72
2022-08-25T01:59:01.579Z,5.28
2022-08-25T02:03:19.405Z,4.68
2022-08-25T02:07:36.554Z,5.85
2022-08-25T02:11:53.619Z,5.62
2022-08-25T02:16:10.952Z,5.05
2022-08-25T02:20:27.123Z,5.50
2022-08-25T02:24:43.204Z,5.72
2022-08-25T02:28:59.259Z,5.43
2022-08-25T02:33:15.248Z,5.32
2022-08-25T02:37:31.305Z,6.20
2022-08-25T02:41:47.425Z,5.37
2022-08-25T02:46:03.493Z,5.82
2022-08-25T02:50:22.334Z,6.55
2022-08-25T02:54:38.558Z,6.45
2022-08-25T02:58:54.813Z,6.35
2022-08-25T03:03:10.826Z,4.65
2022-08-25T03:07:26.887Z,4.50
2022-08-25T03:11:43.983Z,4.53
2022-08-25T03:16:01.328Z,4.53
2022-08-25T03:20:19.687Z,4.30
2022-08-25T03:24:35.658Z,4.00
2022-08-25T03:28:51.696Z,4.32
2022-08-25T03:33:07.869Z,4.75
2022-08-25T03:37:24.014Z,4.18
2022-08-25T03:41:40.245Z,4.00
2022-08-25T03:45:57.244Z,4.22
2022-08-25T03:50:13.982Z,4.22
2022-08-25T03:54:30.249Z,4.20
2022-08-25T03:58:46.639Z,5.50
2022-08-25T04:03:02.742Z,5.60
2022-08-25T04:07:18.755Z,6.03
2022-08-25T04:11:34.800Z,5.62
2022-08-25T04:15:51.122Z,4.72
2022-08-25T04:20:10.160Z,4.15
2022-08-25T04:24:30.090Z,3.45
2022-08-25T04:28:46.806Z,3.65
2022-08-25T04:33:02.956Z,3.33
2022-08-25T04:37:18.951Z,3.50
2022-08-25T04:41:35.144Z,3.15
2022-08-25T04:45:52.300Z,3.20
2022-08-25T04:50:08.763Z,3.30
2022-08-25T04:54:25.314Z,3.40
2022-08-25T04:58:41.763Z,3.75
2022-08-25T05:02:57.790Z,3.62
2022-08-25T05:07:13.826Z,4.00
2022-08-25T05:11:30.214Z,4.00
2022-08-25T05:16:00.225Z,3.42
2022-08-25T05:20:16.540Z,5.12
2022-08-25T05:24:32.733Z,4.53
2022-08-25T05:28:51.404Z,4.78
2022-08-25T05:33:07.958Z,4.53
2022-08-25T05:37:23.895Z,3.22
2022-08-25T05:41:39.825Z,3.40
2022-08-25T05:45:57.908Z,4.05
2022-08-25T05:50:13.890Z,4.12
2022-08-25T05:54:31.721Z,4.53
2022-08-25T05:58:48.181Z,4.65
2022-08-25T06:03:04.189Z,4.80
2022-08-25T06:07:20.551Z,4.87
2022-08-25T06:11:38.151Z,4.03
2022-08-25T06:15:58.888Z,5.30
2022-08-25T06:20:18.287Z,5.03
2022-08-25T06:24:34.421Z,5.28
2022-08-25T06:28:51.523Z,5.37
2022-08-25T06:33:07.481Z,4.95
2022-08-25T06:37:25.281Z,4.87
2022-08-25T06:41:41.391Z,4.80
2022-08-25T06:45:57.386Z,4.72
2022-08-25T06:50:13.605Z,5.30
2022-08-25T06:54:29.833Z,4.82
2022-08-25T06:58:46.202Z,6.12
2022-08-25T07:03:02.761Z,5.90
2022-08-25T07:07:19.433Z,5.85
2022-08-25T07:11:35.552Z,5.65
2022-08-25T07:15:55.341Z,6.60
2022-08-25T07:20:13.754Z,5.60
2022-08-25T07:24:29.957Z,5.32
2022-08-25T07:28:47.429Z,6.37
2022-08-25T07:33:06.732Z,5.55
2022-08-25T07:37:48.446Z,5.82
2022-08-25T07:42:00.121Z,5.18
2022-08-25T07:46:18.086Z,5.47
2022-08-25T07:50:35.486Z,5.40
2022-08-25T07:54:54.039Z,5.47
2022-08-25T07:59:12.550Z,5.55
2022-08-25T08:03:45.092Z,5.12
2022-08-25T08:08:06.540Z,5.20
2022-08-25T08:12:23.568Z,5.15
2022-08-25T08:16:40.161Z,5.25
2022-08-25T08:20:58.219Z,4.78
2022-08-25T08:25:18.649Z,4.87
2022-08-25T08:29:38.256Z,5.37
2022-08-25T08:33:55.679Z,5.03
2022-08-25T08:38:17.310Z,5.97
2022-08-25T08:42:51.994Z,5.07
2022-08-25T08:47:36.400Z,5.25
2022-08-25T08:51:59.658Z,5.65
2022-08-25T08:56:23.655Z,5.12
2022-08-25T09:00:52.616Z,5.40
2022-08-25T09:05:12.436Z,5.20
2022-08-25T09:09:35.755Z,5.70
2022-08-25T09:14:18.537Z,5.43
2022-08-25T09:18:52.721Z,5.18
2022-08-25T09:23:26.513Z,5.00
2022-08-25T09:28:07.922Z,5.00
2022-08-25T09:32:31.448Z,4.28
2022-08-25T09:36:51.025Z,4.22
2022-08-25T09:41:08.683Z,4.75
2022-08-25T09:45:35.921Z,4.50
2022-08-25T09:50:04.565Z,3.75
2022-08-25T09:54:25.374Z,3.70
2022-08-25T09:58:41.665Z,3.87
2022-08-25T10:03:22.685Z,3.67
2022-08-25T10:07:51.908Z,3.33
2022-08-25T10:12:42.533Z,3.37
2022-08-25T10:17:27.592Z,3.03
2022-08-25T10:21:44.289Z,3.20
2022-08-25T10:26:08.853Z,3.03
2022-08-25T10:31:00.295Z,3.22
2022-08-25T10:35:23.126Z,3.33
2022-08-25T10:39:44.109Z,3.72
2022-08-25T10:45:03.077Z,3.15
2022-08-25T10:49:30.921Z,2.72
2022-08-25T10:54:16.375Z,3.35
2022-08-25T10:58:48.482Z,3.55
2022-08-25T11:03:26.794Z,2.90
2022-08-25T11:08:13.495Z,3.22
2022-08-25T11:12:35.096Z,3.58
2022-08-25T11:16:58.205Z,3.12
2022-08-25T11:21:18.953Z,3.05
2022-08-25T11:25:43.918Z,3.17
2022-08-25T11:30:06.150Z,3.00
2022-08-25T11:34:23.408Z,3.10
2022-08-25T11:38:57.330Z,3.40
2022-08-25T11:43:27.577Z,2.72
2022-08-25T11:48:22.153Z,2.90
2022-08-25T11:52:49.327Z,2.97
2022-08-25T11:57:17.228Z,3.33
2022-08-25T12:01:40.573Z,2.60
2022-08-25T12:06:16.665Z,3.08
2022-08-25T12:10:52.787Z,2.80
2022-08-25T12:15:20.599Z,3.00
2022-08-25T12:19:38.065Z,2.97
2022-08-25T12:24:15.929Z,3.05
2022-08-25T12:28:42.438Z,2.60
2022-08-25T12:33:20.349Z,2.72
2022-08-25T12:37:53.129Z,2.95
2022-08-25T12:42:26.255Z,3.00
2022-08-25T12:46:44.753Z,3.45
2022-08-25T12:51:17.436Z,3.05
2022-08-25T12:55:33.698Z,3.00
2022-08-25T12:59:56.430Z,2.83
2022-08-25T13:04:24.313Z,2.62
2022-08-25T13:08:46.654Z,3.10
2022-08-25T13:13:18.048Z,3.12
2022-08-25T13:17:35.722Z,3.00
2022-08-25T13:21:51.908Z,3.15
2022-08-25T13:26:21.411Z,3.08
2022-08-25T13:30:39.282Z,2.67
2022-08-25T13:35:12.080Z,3.17
2022-08-25T13:39:53.107Z,2.58
2022-08-25T13:44:13.224Z,2.83
2022-08-25T13:48:49.588Z,3.03
2022-08-25T13:53:11.559Z,2.92
2022-08-25T13:57:31.166Z,2.87
2022-08-25T14:01:49.933Z,2.92
2022-08-25T14:06:08.276Z,3.45
2022-08-25T14:10:42.315Z,3.20
2022-08-25T14:15:13.770Z,2.80
2022-08-25T14:19:30.786Z,3.10
2022-08-25T14:23:46.806Z,2.90
2022-08-25T14:28:07.372Z,3.00
2022-08-25T14:32:32.979Z,3.58
2022-08-25T14:36:49.985Z,2.95
2022-08-25T14:45:28.335Z,3.33
2022-08-25T14:49:45.961Z,2.92
2022-08-25T14:54:05.495Z,2.92
2022-08-25T14:58:26.018Z,3.22
2022-08-25T15:02:45.710Z,2.80
2022-08-25T15:07:22.775Z,3.03
2022-08-25T15:11:52.307Z,3.12
2022-08-25T15:16:11.771Z,3.05
2022-08-25T15:20:27.958Z,2.62
2022-08-25T15:24:45.375Z,3.28
2022-08-25T15:29:01.358Z,3.12
2022-08-25T15:33:17.633Z,3.35
2022-08-25T15:37:35.745Z,3.30
2022-08-25T15:41:53.820Z,2.75
2022-08-25T15:46:09.962Z,2.90
2022-08-25T15:50:26.988Z,2.90
2022-08-25T15:54:43.025Z,3.28
2022-08-25T15:59:03.396Z,3.20
2022-08-25T16:03:19.442Z,2.72
2022-08-25T16:07:36.298Z,7.25
2022-08-25T16:11:56.302Z,8.00
2022-08-25T16:16:13.710Z,6.87
2022-08-25T16:20:31.050Z,10.73
2022-08-25T16:24:47.237Z,13.73
2022-08-25T16:29:06.433Z,22.37
2022-08-25T16:33:22.993Z,10.00
2022-08-25T16:37:39.493Z,4.00
2022-08-25T16:41:56.633Z,4.18
2022-08-25T16:46:15.476Z,3.78
2022-08-25T16:50:34.637Z,3.62
2022-08-25T16:55:09.596Z,3.62
2022-08-25T16:59:26.613Z,3.50
2022-08-25T17:03:44.168Z,3.70
2022-08-25T17:08:19.785Z,3.70
2022-08-25T17:12:35.950Z,3.47
2022-08-25T17:16:54.843Z,4.00
2022-08-25T17:21:12.924Z,3.83
2022-08-25T17:25:36.971Z,3.40
2022-08-25T17:29:57.341Z,3.35
2022-08-25T17:34:16.549Z,3.45
2022-08-25T17:38:33.902Z,3.70
2022-08-25T17:42:49.997Z,4.18
2022-08-25T17:47:07.924Z,4.10
2022-08-25T17:51:24.159Z,3.47
2022-08-25T17:55:43.109Z,3.65
2022-08-25T17:59:59.817Z,3.50
2022-08-25T18:04:23.323Z,3.65
2022-08-25T18:08:45.261Z,4.15
2022-08-25T18:13:08.183Z,3.62
2022-08-25T18:17:24.180Z,4.50
2022-08-25T18:21:43.354Z,4.50
2022-08-25T18:26:00.935Z,4.28
2022-08-25T18:30:17.351Z,4.12
2022-08-25T18:34:34.059Z,3.92
2022-08-25T18:39:10.619Z,3.53
2022-08-25T18:43:31.915Z,4.00
2022-08-25T18:47:56.449Z,4.03
2022-08-25T18:52:13.045Z,3.60
2022-08-25T18:56:29.468Z,3.95
2022-08-25T19:00:45.982Z,4.20
2022-08-25T19:05:07.417Z,3.70
2022-08-25T19:09:23.806Z,4.07
2022-08-25T19:13:40.397Z,4.70
2022-08-25T19:17:58.941Z,4.50
2022-08-25T19:22:38.219Z,4.00
2022-08-25T19:26:54.482Z,3.85
2022-08-25T19:31:10.877Z,3.53
2022-08-25T19:35:39.466Z,4.12
2022-08-25T19:40:02.527Z,3.58
2022-08-25T19:44:21.059Z,4.47
2022-08-25T19:48:37.293Z,4.68
2022-08-25T19:52:54.106Z,4.28
2022-08-25T19:57:11.550Z,4.25
2022-08-25T20:01:27.893Z,3.90
2022-08-25T20:05:43.950Z,4.12
2022-08-25T20:10:08.060Z,3.78
2022-08-25T20:14:30.121Z,4.65
2022-08-25T20:18:46.042Z,4.30
2022-08-25T20:23:21.083Z,4.30
2022-08-25T20:27:41.539Z,4.37
2022-08-25T20:31:57.567Z,4.40
2022-08-25T20:36:17.676Z,4.57
2022-08-25T20:40:35.062Z,4.10
2022-08-25T20:44:53.678Z,4.45
2022-08-25T20:49:09.628Z,4.12
2022-08-25T20:53:26.070Z,4.07
2022-08-25T20:57:42.244Z,4.60
2022-08-25T21:01:59.525Z,4.60
2022-08-25T21:06:17.148Z,4.12
2022-08-25T21:10:33.798Z,4.65
2022-08-25T21:14:50.862Z,4.93
2022-08-25T21:19:08.836Z,3.80
2022-08-25T21:23:26.877Z,3.90
2022-08-25T21:27:43.632Z,4.35
2022-08-25T21:32:00.001Z,4.37
2022-08-25T21:36:17.010Z,3.87
2022-08-25T21:40:37.098Z,4.03
2022-08-25T21:44:53.262Z,4.07
2022-08-25T21:49:09.618Z,4.10
2022-08-25T21:53:25.651Z,4.05
2022-08-25T21:57:43.878Z,3.97
2022-08-25T22:02:02.452Z,4.07
2022-08-25T22:06:21.970Z,4.65
2022-08-25T22:10:44.728Z,4.35
2022-08-25T22:15:00.808Z,4.60
2022-08-25T22:19:17.508Z,4.00
2022-08-25T22:23:33.470Z,4.07
2022-08-25T22:28:00.470Z,4.03
2022-08-25T22:32:16.578Z,4.40
2022-08-25T22:36:37.385Z,4.28
2022-08-25T22:40:53.379Z,4.45
2022-08-25T22:45:11.240Z,4.37
2022-08-25T22:49:29.277Z,4.12
2022-08-25T22:53:46.738Z,4.10
2022-08-25T22:58:02.912Z,4.68
2022-08-25T23:02:18.973Z,4.65
2022-08-25T23:06:35.854Z,4.45
2022-08-25T23:10:54.232Z,4.82
2022-08-25T23:15:14.161Z,4.40
2022-08-25T23:19:30.277Z,4.10
2022-08-25T23:23:47.997Z,4.50
2022-08-25T23:28:05.098Z,5.07
2022-08-25T23:32:21.427Z,3.83
2022-08-25T23:36:37.478Z,4.25
2022-08-25T23:40:53.552Z,4.30
2022-08-25T23:45:10.676Z,4.30
2022-08-25T23:49:27.399Z,4.50
2022-08-25T23:53:43.577Z,4.55
2022-08-25T23:57:59.729Z,5.03
